createdAt,value
2022-07-26T00:01:18.471Z,4.05
2022-07-26T00:06:26.056Z,4.90
2022-07-26T00:08:53.081Z,4.53
2022-07-26T00:11:20.329Z,5.38
2022-07-26T00:13:47.429Z,4.63
2022-07-26T00:16:14.981Z,4.82
2022-07-26T00:18:41.842Z,4.20
2022-07-26T00:21:08.636Z,4.40
2022-07-26T00:23:35.395Z,4.10
2022-07-26T00:26:02.144Z,4.70
2022-07-26T00:28:28.799Z,5.28
2022-07-26T00:30:55.528Z,5.57
2022-07-26T00:33:22.139Z,4.00
2022-07-26T00:35:48.793Z,4.35
2022-07-26T00:38:15.468Z,4.28
2022-07-26T00:40:42.295Z,4.60
2022-07-26T00:43:08.924Z,4.13
2022-07-26T00:45:35.618Z,4.68
2022-07-26T00:48:02.521Z,6.18
2022-07-26T00:50:29.832Z,4.45
2022-07-26T00:52:56.521Z,4.38
2022-07-26T00:55:23.203Z,3.97
2022-07-26T01:00:39.694Z,4.30
2022-07-26T01:03:20.901Z,5.35
2022-07-26T01:05:57.206Z,5.13
2022-07-26T01:08:34.934Z,4.32
2022-07-26T01:11:02.295Z,5.75
2022-07-26T01:13:35.683Z,4.45
2022-07-26T01:16:03.438Z,4.78
2022-07-26T01:18:33.205Z,5.55
2022-07-26T01:21:13.264Z,3.80
2022-07-26T01:23:40.758Z,6.38
2022-07-26T01:26:10.395Z,6.22
2022-07-26T01:28:38.956Z,4.28
2022-07-26T01:31:07.035Z,5.95
2022-07-26T01:33:37.513Z,5.20
2022-07-26T01:36:04.544Z,4.53
2022-07-26T01:38:31.331Z,4.65
2022-07-26T01:40:58.403Z,4.53
2022-07-26T01:43:28.222Z,4.07
2022-07-26T01:46:14.119Z,5.13
2022-07-26T01:49:03.734Z,6.75
2022-07-26T01:51:39.799Z,4.40
2022-07-26T01:54:14.965Z,4.18
2022-07-26T01:56:57.835Z,8.73
2022-07-26T01:59:27.583Z,5.03
2022-07-26T02:01:56.757Z,4.57
2022-07-26T02:04:45.134Z,5.95
2022-07-26T02:07:17.453Z,5.32
2022-07-26T02:09:55.501Z,5.80
2022-07-26T02:12:22.680Z,5.85
2022-07-26T02:14:50.007Z,5.75
2022-07-26T02:17:24.368Z,3.92
2022-07-26T02:19:57.787Z,4.32
2022-07-26T02:22:33.470Z,4.95
2022-07-26T02:25:08.187Z,4.35
2022-07-26T02:27:38.390Z,3.88
2022-07-26T02:30:11.770Z,4.35
2022-07-26T02:32:40.387Z,4.45
2022-07-26T02:35:08.126Z,4.85
2022-07-26T02:37:42.628Z,3.78
2022-07-26T02:40:16.917Z,4.10
2022-07-26T02:42:45.758Z,5.43
2022-07-26T02:45:15.244Z,4.07
2022-07-26T02:47:54.975Z,4.18
2022-07-26T02:50:27.069Z,3.72
2022-07-26T02:52:59.062Z,7.53
2022-07-26T02:55:30.241Z,5.80
2022-07-26T03:01:43.950Z,3.30
2022-07-26T03:04:10.989Z,4.15
2022-07-26T03:06:38.130Z,3.83
2022-07-26T03:09:05.632Z,4.72
2022-07-26T03:11:32.251Z,4.95
2022-07-26T03:13:58.884Z,3.58
2022-07-26T03:16:29.377Z,3.72
2022-07-26T03:18:56.558Z,5.32
2022-07-26T03:21:28.713Z,3.80
2022-07-26T03:23:55.256Z,4.75
2022-07-26T03:26:21.898Z,3.92
2022-07-26T03:28:48.519Z,3.83
2022-07-26T03:31:15.185Z,4.45
2022-07-26T03:33:42.157Z,3.60
2022-07-26T03:36:15.448Z,3.85
2022-07-26T03:38:42.590Z,3.50
2022-07-26T03:41:09.186Z,3.78
2022-07-26T03:43:40.313Z,3.50
2022-07-26T03:46:06.984Z,5.68
2022-07-26T03:48:33.627Z,4.40
2022-07-26T03:51:00.417Z,4.90
2022-07-26T03:53:27.024Z,9.27
2022-07-26T03:56:12.381Z,12.50
2022-07-26T03:58:40.227Z,9.30
2022-07-26T04:01:06.850Z,6.20
2022-07-26T04:03:33.465Z,8.27
2022-07-26T04:06:00.721Z,11.27
2022-07-26T04:08:28.432Z,6.57
2022-07-26T04:10:55.053Z,5.60
2022-07-26T04:13:24.258Z,4.68
2022-07-26T04:15:51.124Z,4.07
2022-07-26T04:18:17.931Z,3.97
2022-07-26T04:20:44.938Z,3.28
2022-07-26T04:23:12.405Z,4.32
2022-07-26T04:25:41.128Z,3.97
2022-07-26T04:28:08.722Z,4.80
2022-07-26T04:30:35.467Z,3.63
2022-07-26T04:33:02.350Z,3.20
2022-07-26T04:35:29.083Z,3.95
2022-07-26T04:37:55.643Z,3.08
2022-07-26T04:40:23.745Z,3.58
2022-07-26T04:42:51.808Z,4.13
2022-07-26T04:45:19.289Z,3.30
2022-07-26T04:47:49.798Z,3.30
2022-07-26T04:50:17.852Z,4.15
2022-07-26T04:52:44.551Z,3.05
2022-07-26T04:55:11.604Z,5.20
2022-07-26T04:57:38.260Z,4.07
2022-07-26T05:02:29.878Z,2.60
2022-07-26T05:04:56.513Z,3.63
2022-07-26T05:07:23.105Z,3.40
2022-07-26T05:09:49.630Z,3.78
2022-07-26T05:12:16.295Z,5.53
2022-07-26T05:14:44.422Z,3.15
2022-07-26T05:17:12.169Z,3.17
2022-07-26T05:19:38.982Z,4.13
2022-07-26T05:22:05.588Z,2.75
2022-07-26T05:24:32.153Z,2.80
2022-07-26T05:26:58.782Z,5.05
2022-07-26T05:29:25.336Z,6.68
2022-07-26T05:31:51.886Z,3.47
2022-07-26T05:34:18.418Z,3.08
2022-07-26T05:36:45.025Z,7.07
2022-07-26T05:39:15.776Z,3.47
2022-07-26T05:41:42.744Z,3.22
2022-07-26T05:44:10.800Z,3.65
2022-07-26T05:46:37.853Z,3.92
2022-07-26T05:49:05.711Z,4.22
2022-07-26T05:51:33.642Z,5.25
2022-07-26T05:54:00.542Z,4.53
2022-07-26T05:56:27.918Z,4.18
2022-07-26T05:58:54.569Z,2.72
2022-07-26T06:01:21.347Z,6.95
2022-07-26T06:03:49.898Z,2.92
2022-07-26T06:06:16.527Z,5.75
2022-07-26T06:08:43.312Z,2.78
2022-07-26T06:11:09.966Z,3.05
2022-07-26T06:13:36.565Z,4.32
2022-07-26T06:16:03.180Z,3.35
2022-07-26T06:18:29.904Z,5.85
2022-07-26T06:20:56.806Z,3.95
2022-07-26T06:23:33.872Z,3.55
2022-07-26T06:26:01.703Z,5.45
2022-07-26T06:28:28.352Z,3.65
2022-07-26T06:30:54.926Z,3.92
2022-07-26T06:33:21.608Z,5.32
2022-07-26T06:35:48.330Z,3.75
2022-07-26T06:38:15.095Z,4.60
2022-07-26T06:40:41.748Z,5.60
2022-07-26T06:43:08.367Z,3.95
2022-07-26T06:45:35.052Z,6.38
2022-07-26T06:48:01.880Z,4.97
2022-07-26T06:50:28.639Z,4.88
2022-07-26T06:52:55.345Z,6.53
2022-07-26T06:55:22.147Z,6.25
2022-07-26T06:57:49.991Z,4.70
2022-07-26T07:03:49.747Z,4.40
2022-07-26T07:06:16.804Z,3.25
2022-07-26T07:08:43.534Z,3.25
2022-07-26T07:11:11.373Z,4.65
2022-07-26T07:13:37.942Z,3.13
2022-07-26T07:16:04.973Z,3.83
2022-07-26T07:18:32.491Z,3.80
2022-07-26T07:20:59.107Z,4.55
2022-07-26T07:23:25.772Z,5.47
2022-07-26T07:25:52.477Z,3.90
2022-07-26T07:28:20.282Z,4.60
2022-07-26T07:30:47.766Z,7.10
2022-07-26T07:33:22.758Z,4.00
2022-07-26T07:35:50.541Z,4.85
2022-07-26T07:38:17.343Z,4.32
2022-07-26T07:40:44.564Z,7.72
2022-07-26T07:43:11.179Z,5.63
2022-07-26T07:45:37.867Z,7.70
2022-07-26T07:48:04.756Z,5.00
2022-07-26T07:50:33.179Z,8.73
2022-07-26T07:53:00.788Z,6.72
2022-07-26T07:55:46.682Z,7.43
2022-07-26T07:58:14.774Z,5.10
2022-07-26T08:00:42.022Z,4.32
2022-07-26T08:03:08.747Z,8.38
2022-07-26T08:05:35.856Z,5.38
2022-07-26T08:08:08.174Z,6.32
2022-07-26T08:10:35.175Z,4.65
2022-07-26T08:13:08.562Z,5.38
2022-07-26T08:15:36.632Z,7.78
2022-07-26T08:18:05.973Z,6.60
2022-07-26T08:20:35.232Z,5.90
2022-07-26T08:23:01.845Z,6.45
2022-07-26T08:25:28.739Z,6.60
2022-07-26T08:28:24.946Z,7.70
2022-07-26T08:30:42.087Z,6.68
2022-07-26T08:33:08.778Z,8.68
2022-07-26T08:35:35.460Z,7.35
2022-07-26T08:38:02.024Z,7.25
2022-07-26T08:40:28.637Z,8.02
2022-07-26T08:42:57.241Z,6.32
2022-07-26T08:45:28.426Z,6.80
2022-07-26T08:48:16.552Z,5.97
2022-07-26T08:50:42.335Z,6.68
2022-07-26T08:53:12.019Z,7.20
2022-07-26T08:56:04.248Z,6.60
2022-07-26T08:58:25.293Z,7.78
2022-07-26T09:04:34.016Z,7.90
2022-07-26T09:07:15.595Z,7.10
2022-07-26T09:09:58.409Z,6.75
2022-07-26T09:12:26.792Z,6.30
2022-07-26T09:14:54.062Z,14.00
2022-07-26T09:17:23.578Z,7.40
2022-07-26T09:20:24.519Z,7.13
2022-07-26T09:23:08.032Z,7.30
2022-07-26T09:25:38.188Z,7.95
2022-07-26T09:28:21.484Z,7.45
2022-07-26T09:31:03.332Z,7.60
2022-07-26T09:33:46.942Z,11.32
2022-07-26T09:36:13.905Z,8.30
2022-07-26T09:38:43.211Z,6.50
2022-07-26T09:41:24.078Z,6.68
2022-07-26T09:43:54.041Z,7.88
2022-07-26T09:46:22.977Z,7.25
2022-07-26T09:49:10.035Z,9.05
2022-07-26T09:51:37.897Z,15.43
2022-07-26T09:54:04.633Z,9.95
2022-07-26T09:56:51.222Z,6.63
2022-07-26T09:59:20.795Z,8.20
2022-07-26T10:01:48.842Z,10.65
2022-07-26T10:04:15.871Z,11.40
2022-07-26T10:06:43.248Z,7.95
2022-07-26T10:09:11.806Z,7.05
2022-07-26T10:11:47.646Z,6.40
2022-07-26T10:14:32.969Z,6.35
2022-07-26T10:17:01.153Z,9.20
2022-07-26T10:19:45.575Z,6.45
2022-07-26T10:22:32.083Z,6.78
2022-07-26T10:25:18.646Z,7.00
2022-07-26T10:27:50.857Z,9.27
2022-07-26T10:30:17.614Z,7.00
2022-07-26T10:33:01.790Z,6.20
2022-07-26T10:35:34.600Z,7.60
2022-07-26T10:38:12.504Z,5.38
2022-07-26T10:40:55.898Z,6.25
2022-07-26T10:43:40.247Z,6.80
2022-07-26T10:46:16.440Z,5.40
2022-07-26T10:48:58.648Z,5.10
2022-07-26T10:51:32.835Z,5.95
2022-07-26T10:54:05.333Z,6.32
2022-07-26T10:56:33.643Z,8.50
2022-07-26T10:59:01.179Z,5.35
2022-07-26T11:01:38.081Z,7.88
2022-07-26T11:05:36.812Z,7.03
2022-07-26T11:08:10.722Z,5.80
2022-07-26T11:10:44.445Z,6.45
2022-07-26T11:13:17.782Z,7.10
2022-07-26T11:15:50.373Z,7.82
2022-07-26T11:18:21.256Z,6.05
2022-07-26T11:20:51.465Z,7.00
2022-07-26T11:23:23.920Z,6.10
2022-07-26T11:26:04.241Z,5.75
2022-07-26T11:28:42.336Z,5.10
2022-07-26T11:31:09.096Z,7.57
2022-07-26T11:33:42.501Z,9.00
2022-07-26T11:36:09.834Z,6.47
2022-07-26T11:38:46.556Z,6.15
2022-07-26T11:41:15.290Z,6.25
2022-07-26T11:43:42.999Z,8.13
2022-07-26T11:46:09.737Z,6.30
2022-07-26T11:48:36.419Z,13.48
2022-07-26T11:51:10.166Z,9.35
2022-07-26T11:53:40.220Z,6.22
2022-07-26T11:56:26.112Z,10.82
2022-07-26T11:58:56.643Z,9.55
2022-07-26T12:01:24.772Z,8.77
2022-07-26T12:03:54.050Z,9.13
2022-07-26T12:06:23.571Z,7.53
2022-07-26T12:08:56.250Z,9.07
2022-07-26T12:11:25.605Z,8.02
2022-07-26T12:14:02.093Z,8.80
2022-07-26T12:16:39.392Z,7.72
2022-07-26T12:19:07.803Z,12.15
2022-07-26T12:21:46.302Z,10.02
2022-07-26T12:24:33.280Z,9.98
2022-07-26T12:27:06.994Z,9.38
2022-07-26T12:29:36.537Z,10.02
2022-07-26T12:32:12.290Z,10.30
2022-07-26T12:34:40.887Z,14.60
2022-07-26T12:37:07.404Z,13.23
2022-07-26T12:39:34.120Z,11.82
2022-07-26T12:42:23.063Z,11.75
2022-07-26T12:45:01.065Z,11.80
2022-07-26T12:47:28.320Z,11.60
2022-07-26T12:49:55.444Z,12.52
2022-07-26T12:52:23.288Z,12.18
2022-07-26T12:54:52.001Z,11.85
2022-07-26T12:57:19.901Z,11.88
2022-07-26T12:59:48.340Z,12.60
2022-07-26T13:02:17.244Z,12.80
2022-07-26T13:06:36.637Z,13.05
2022-07-26T13:09:03.659Z,12.95
2022-07-26T13:11:30.788Z,13.02
2022-07-26T13:13:57.603Z,13.75
2022-07-26T13:16:24.913Z,11.30
2022-07-26T13:18:51.652Z,10.63
2022-07-26T13:21:18.378Z,10.68
2022-07-26T13:23:44.973Z,11.23
2022-07-26T13:26:12.468Z,11.10
2022-07-26T13:28:40.662Z,10.95
2022-07-26T13:31:07.405Z,10.23
2022-07-26T13:33:34.196Z,10.75
2022-07-26T13:36:00.864Z,10.63
2022-07-26T13:38:28.587Z,9.98
2022-07-26T13:40:56.592Z,10.20
2022-07-26T13:43:23.861Z,9.77
2022-07-26T13:45:50.494Z,8.68
2022-07-26T13:48:17.183Z,9.13
2022-07-26T13:50:43.856Z,8.25
2022-07-26T13:53:10.494Z,7.88
2022-07-26T13:55:37.082Z,7.70
2022-07-26T13:58:09.738Z,8.32
2022-07-26T14:00:37.822Z,7.93
2022-07-26T14:03:07.715Z,8.48
2022-07-26T14:05:40.257Z,7.55
2022-07-26T14:08:10.041Z,8.07
2022-07-26T14:10:39.870Z,7.65
2022-07-26T14:13:07.786Z,6.80
2022-07-26T14:15:35.048Z,6.78
2022-07-26T14:18:02.462Z,6.65
2022-07-26T14:20:29.174Z,7.00
2022-07-26T14:22:57.240Z,6.60
2022-07-26T14:25:25.826Z,7.03
2022-07-26T14:28:13.278Z,6.55
2022-07-26T14:31:06.165Z,6.47
2022-07-26T14:33:36.701Z,5.65
2022-07-26T14:36:03.538Z,6.90
2022-07-26T14:38:30.451Z,4.97
2022-07-26T14:40:58.009Z,8.95
2022-07-26T14:43:26.800Z,5.35
2022-07-26T14:45:54.044Z,4.70
2022-07-26T14:48:44.177Z,4.68
2022-07-26T14:51:09.837Z,5.00
2022-07-26T14:53:37.133Z,4.65
2022-07-26T14:56:24.679Z,4.88
2022-07-26T14:58:51.815Z,5.93
2022-07-26T15:01:18.695Z,7.45
2022-07-26T15:03:45.845Z,4.68
2022-07-26T15:07:44.416Z,5.20
2022-07-26T15:10:13.102Z,4.32
2022-07-26T15:12:40.597Z,4.38
2022-07-26T15:15:08.891Z,5.07
2022-07-26T15:17:46.282Z,6.50
2022-07-26T15:23:10.086Z,6.30
2022-07-26T15:25:39.026Z,5.65
2022-07-26T15:28:06.118Z,5.13
2022-07-26T15:30:37.401Z,7.05
2022-07-26T15:33:16.952Z,5.20
2022-07-26T15:36:05.679Z,5.85
2022-07-26T15:38:36.433Z,8.55
2022-07-26T15:41:03.707Z,6.30
2022-07-26T15:43:48.426Z,5.40
2022-07-26T15:46:16.364Z,5.80
2022-07-26T15:48:43.325Z,6.85
2022-07-26T15:51:38.168Z,6.13
2022-07-26T15:54:29.529Z,6.88
2022-07-26T15:57:00.874Z,9.57
2022-07-26T15:59:35.319Z,8.10
2022-07-26T16:02:02.406Z,7.88
2022-07-26T16:04:29.209Z,7.90
2022-07-26T16:06:56.339Z,8.98
2022-07-26T16:09:23.529Z,10.05
2022-07-26T16:11:50.518Z,7.20
2022-07-26T16:14:18.075Z,8.82
2022-07-26T16:16:45.851Z,8.80
2022-07-26T16:19:13.017Z,5.78
2022-07-26T16:21:40.858Z,8.48
2022-07-26T16:24:08.211Z,9.57
2022-07-26T16:26:35.814Z,6.50
2022-07-26T16:29:03.946Z,8.38
2022-07-26T16:31:31.466Z,9.02
2022-07-26T16:33:58.303Z,9.13
2022-07-26T16:36:25.048Z,7.50
2022-07-26T16:38:52.135Z,7.00
2022-07-26T16:41:26.198Z,6.20
2022-07-26T16:47:04.832Z,8.18
2022-07-26T16:49:31.910Z,7.68
2022-07-26T16:51:59.182Z,7.25
2022-07-26T16:54:26.466Z,7.50
2022-07-26T16:56:53.218Z,6.70
2022-07-26T16:59:26.252Z,8.13
2022-07-26T17:02:02.773Z,7.72
2022-07-26T17:04:30.228Z,9.15
2022-07-26T17:08:44.080Z,6.28
2022-07-26T17:11:10.942Z,8.90
2022-07-26T17:13:37.968Z,8.60
2022-07-26T17:16:05.315Z,10.32
2022-07-26T17:18:32.131Z,8.02
2022-07-26T17:20:59.386Z,9.18
2022-07-26T17:23:26.339Z,10.23
2022-07-26T17:25:53.356Z,10.82
2022-07-26T17:28:20.262Z,8.80
2022-07-26T17:30:47.572Z,8.25
2022-07-26T17:33:14.524Z,8.10
2022-07-26T17:35:41.320Z,10.00
2022-07-26T17:38:07.979Z,9.25
2022-07-26T17:40:34.725Z,8.00
2022-07-26T17:43:02.007Z,7.63
2022-07-26T17:45:28.705Z,8.82
2022-07-26T17:47:55.486Z,7.38
2022-07-26T17:50:38.588Z,9.23
2022-07-26T17:53:05.822Z,9.57
2022-07-26T17:55:32.700Z,9.63
2022-07-26T17:57:59.548Z,7.70
2022-07-26T18:00:29.056Z,8.48
2022-07-26T18:02:56.961Z,7.65
2022-07-26T18:05:30.157Z,9.05
2022-07-26T18:08:00.766Z,8.10
2022-07-26T18:10:28.367Z,7.80
2022-07-26T18:12:57.469Z,11.10
2022-07-26T18:15:24.316Z,7.78
2022-07-26T18:17:51.047Z,8.27
2022-07-26T18:20:17.786Z,11.68
2022-07-26T18:22:45.723Z,8.57
2022-07-26T18:25:12.963Z,8.25
2022-07-26T18:27:40.924Z,10.05
2022-07-26T18:30:08.051Z,8.82
2022-07-26T18:32:35.204Z,10.00
2022-07-26T18:35:02.604Z,8.80
2022-07-26T18:37:29.316Z,8.95
2022-07-26T18:39:58.029Z,8.80
2022-07-26T18:42:25.327Z,9.38
2022-07-26T18:44:51.987Z,9.88
2022-07-26T18:47:18.648Z,11.63
2022-07-26T18:49:45.412Z,10.57
2022-07-26T18:52:12.122Z,10.27
2022-07-26T18:54:39.190Z,9.57
2022-07-26T18:57:06.352Z,9.55
2022-07-26T18:59:33.018Z,9.63
2022-07-26T19:02:00.437Z,9.60
2022-07-26T19:04:27.757Z,9.65
2022-07-26T19:09:33.737Z,10.13
2022-07-26T19:12:00.381Z,9.55
2022-07-26T19:14:27.086Z,9.00
2022-07-26T19:16:53.602Z,10.15
2022-07-26T19:19:20.190Z,9.48
2022-07-26T19:21:49.326Z,9.07
2022-07-26T19:24:16.012Z,10.23
2022-07-26T19:26:42.612Z,10.07
2022-07-26T19:29:09.538Z,11.38
2022-07-26T19:31:36.815Z,10.48
2022-07-26T19:34:04.001Z,13.00
2022-07-26T19:36:30.586Z,12.38
2022-07-26T19:38:57.641Z,12.07
2022-07-26T19:41:25.167Z,9.82
2022-07-26T19:43:51.721Z,13.60
2022-07-26T19:46:18.362Z,12.13
2022-07-26T19:48:45.220Z,11.68
2022-07-26T19:51:11.920Z,11.45
2022-07-26T19:53:38.478Z,14.27
2022-07-26T19:56:05.559Z,11.85
2022-07-26T19:58:32.134Z,11.50
2022-07-26T20:00:58.748Z,11.85
2022-07-26T20:03:25.324Z,11.60
2022-07-26T20:05:53.861Z,11.55
2022-07-26T20:08:20.634Z,12.18
2022-07-26T20:10:47.339Z,16.08
2022-07-26T20:13:14.028Z,15.43
2022-07-26T20:15:40.635Z,13.30
2022-07-26T20:18:07.440Z,14.00
2022-07-26T20:20:34.450Z,17.70
2022-07-26T20:23:02.274Z,12.07
2022-07-26T20:25:28.900Z,10.68
2022-07-26T20:27:55.556Z,11.40
2022-07-26T20:30:22.184Z,11.63
2022-07-26T20:32:48.736Z,11.07
2022-07-26T20:35:15.786Z,12.30
2022-07-26T20:37:43.596Z,15.05
2022-07-26T20:40:12.208Z,10.88
2022-07-26T20:42:41.957Z,10.82
2022-07-26T20:45:13.048Z,11.27
2022-07-26T20:47:43.213Z,16.50
2022-07-26T20:50:11.291Z,13.05
2022-07-26T20:52:38.117Z,15.45
2022-07-26T20:55:05.352Z,13.95
2022-07-26T20:57:31.866Z,13.25
2022-07-26T20:59:58.454Z,14.10
2022-07-26T21:02:25.166Z,12.95
2022-07-26T21:04:52.345Z,13.57
2022-07-26T21:10:56.152Z,13.68
2022-07-26T21:13:23.357Z,13.15
2022-07-26T21:15:53.907Z,12.93
2022-07-26T21:18:22.799Z,13.13
2022-07-26T21:20:49.682Z,13.35
2022-07-26T21:23:24.346Z,12.40
2022-07-26T21:25:58.087Z,13.48
2022-07-26T21:28:36.105Z,15.07
2022-07-26T21:31:03.435Z,13.52
2022-07-26T21:33:32.982Z,14.85
2022-07-26T21:36:02.920Z,14.25
2022-07-26T21:38:32.088Z,17.60
2022-07-26T21:41:01.147Z,15.13
2022-07-26T21:43:33.946Z,16.60
2022-07-26T21:46:06.724Z,16.80
2022-07-26T21:48:40.231Z,17.63
2022-07-26T21:51:09.521Z,17.88
2022-07-26T21:53:39.381Z,18.15
2022-07-26T21:56:09.147Z,18.65
2022-07-26T21:58:39.261Z,22.85
2022-07-26T22:01:12.767Z,25.50
2022-07-26T22:06:10.399Z,24.58
2022-07-26T22:08:42.799Z,23.65
2022-07-26T22:11:12.924Z,21.55
2022-07-26T22:13:48.627Z,23.08
2022-07-26T22:16:41.471Z,23.02
2022-07-26T22:19:21.587Z,26.50
2022-07-26T22:21:52.315Z,23.58
2022-07-26T22:24:26.909Z,22.80
2022-07-26T22:27:05.041Z,24.80
2022-07-26T22:29:43.566Z,24.90
2022-07-26T22:32:13.911Z,26.00
2022-07-26T22:34:44.466Z,24.65
2022-07-26T22:37:16.944Z,27.23
2022-07-26T22:39:46.272Z,24.15
2022-07-26T22:42:25.976Z,26.80
2022-07-26T22:44:53.141Z,26.33
2022-07-26T22:47:20.026Z,27.58
2022-07-26T22:52:42.512Z,26.83
2022-07-26T22:55:12.644Z,29.20
2022-07-26T22:57:47.279Z,30.42
2022-07-26T23:00:45.099Z,29.90
2022-07-26T23:03:22.351Z,29.45
2022-07-26T23:05:58.121Z,28.38
2022-07-26T23:11:34.349Z,29.30
2022-07-26T23:14:01.103Z,31.40
2022-07-26T23:16:27.733Z,32.13
2022-07-26T23:18:55.364Z,33.08
2022-07-26T23:21:21.928Z,33.55
2022-07-26T23:23:48.671Z,32.42
2022-07-26T23:26:15.200Z,34.15
2022-07-26T23:28:41.725Z,36.35
2022-07-26T23:31:12.485Z,36.65
2022-07-26T23:33:52.059Z,32.78
2022-07-26T23:36:25.954Z,35.50
2022-07-26T23:38:54.128Z,32.95
2022-07-26T23:41:21.679Z,34.97
2022-07-26T23:43:48.624Z,35.95
2022-07-26T23:46:15.526Z,35.85
2022-07-26T23:48:42.370Z,33.70
2022-07-26T23:51:09.222Z,34.67
2022-07-26T23:53:36.252Z,32.20
2022-07-26T23:56:02.996Z,32.53
2022-07-26T23:58:29.613Z,32.97
